createdAt,value
2022-10-29T00:00:08.199Z,80.30
2022-10-29T00:03:14.159Z,80.50
2022-10-29T00:06:17.821Z,80.70
2022-10-29T00:09:21.447Z,80.70
2022-10-29T00:12:25.068Z,80.80
2022-10-29T00:15:28.713Z,81.00
2022-10-29T00:18:34.234Z,80.80
2022-10-29T00:21:39.116Z,80.70
2022-10-29T00:24:42.757Z,81.00
2022-10-29T00:27:46.348Z,80.90
2022-10-29T00:30:49.976Z,81.00
2022-10-29T00:33:56.767Z,81.00
2022-10-29T00:37:00.433Z,81.10
2022-10-29T00:40:04.294Z,81.10
2022-10-29T00:43:14.496Z,81.50
2022-10-29T00:46:23.390Z,80.80
2022-10-29T00:49:29.347Z,80.70
2022-10-29T00:52:35.876Z,80.90
2022-10-29T00:55:39.585Z,80.90
2022-10-29T00:58:43.916Z,80.80
2022-10-29T01:01:49.254Z,81.00
2022-10-29T01:04:55.171Z,81.20
2022-10-29T01:07:58.817Z,81.20
2022-10-29T01:11:13.176Z,81.20
2022-10-29T01:14:26.141Z,81.20
2022-10-29T01:17:38.411Z,81.20
2022-10-29T01:21:20.183Z,81.60
2022-10-29T01:24:55.128Z,81.10
2022-10-29T01:28:12.607Z,81.20
2022-10-29T01:31:29.625Z,81.40
2022-10-29T01:34:41.170Z,81.50
2022-10-29T01:38:05.752Z,81.20
2022-10-29T01:41:17.521Z,81.30
2022-10-29T01:44:31.552Z,81.50
2022-10-29T01:47:42.152Z,81.60
2022-10-29T01:50:49.397Z,81.40
2022-10-29T01:53:53.490Z,81.50
2022-10-29T01:56:57.889Z,81.40
2022-10-29T02:00:08.823Z,81.60
2022-10-29T02:03:35.046Z,81.70
2022-10-29T02:06:51.950Z,81.90
2022-10-29T02:10:03.631Z,81.70
2022-10-29T02:13:08.689Z,81.70
2022-10-29T02:16:14.731Z,81.70
2022-10-29T02:19:20.676Z,81.60
2022-10-29T02:22:24.285Z,81.80
2022-10-29T02:25:28.248Z,81.80
2022-10-29T02:28:35.929Z,81.70
2022-10-29T02:31:39.536Z,81.80
2022-10-29T02:34:45.097Z,82.10
2022-10-29T02:37:48.756Z,81.70
2022-10-29T02:40:52.368Z,81.80
2022-10-29T02:43:56.028Z,81.90
2022-10-29T02:46:59.645Z,81.80
2022-10-29T02:50:05.699Z,82.10
2022-10-29T02:53:09.350Z,81.90
2022-10-29T02:56:13.235Z,81.80
2022-10-29T02:59:16.825Z,82.00
2022-10-29T03:02:20.558Z,82.30
2022-10-29T03:05:26.192Z,82.00
2022-10-29T03:08:29.807Z,81.90
2022-10-29T03:11:33.661Z,82.00
2022-10-29T03:14:37.303Z,82.00
2022-10-29T03:17:40.921Z,82.10
2022-10-29T03:20:46.938Z,82.30
2022-10-29T03:23:50.616Z,82.20
2022-10-29T03:26:54.280Z,82.20
2022-10-29T03:29:58.839Z,82.30
2022-10-29T03:33:02.478Z,82.30
2022-10-29T03:36:09.420Z,82.30
2022-10-29T03:39:13.091Z,82.30
2022-10-29T03:42:16.712Z,82.30
2022-10-29T03:45:20.325Z,82.40
2022-10-29T03:48:25.291Z,82.30
2022-10-29T03:51:30.841Z,82.20
2022-10-29T03:54:34.474Z,82.30
2022-10-29T03:57:38.156Z,82.20
2022-10-29T04:00:41.779Z,82.50
2022-10-29T04:03:45.396Z,82.30
2022-10-29T04:06:50.952Z,82.50
2022-10-29T04:09:54.558Z,82.60
2022-10-29T04:12:58.447Z,82.40
2022-10-29T04:16:02.348Z,82.40
2022-10-29T04:19:06.484Z,82.60
2022-10-29T04:28:58.988Z,82.40
2022-10-29T04:32:02.564Z,82.40
2022-10-29T04:35:07.433Z,82.30
2022-10-29T04:38:13.673Z,82.50
2022-10-29T04:41:17.295Z,82.70
2022-10-29T04:44:21.386Z,82.70
2022-10-29T04:47:25.224Z,82.70
2022-10-29T04:50:29.159Z,82.70
2022-10-29T04:53:34.725Z,82.80
2022-10-29T04:56:38.367Z,82.80
2022-10-29T04:59:42.030Z,83.00
2022-10-29T05:02:49.301Z,83.00
2022-10-29T05:05:52.937Z,82.90
2022-10-29T05:08:58.476Z,82.90
2022-10-29T05:12:02.204Z,83.00
2022-10-29T05:15:06.872Z,83.00
2022-10-29T05:18:11.674Z,83.00
2022-10-29T05:21:15.276Z,83.00
2022-10-29T05:24:20.861Z,83.10
2022-10-29T05:27:24.457Z,83.20
2022-10-29T05:30:28.099Z,83.10
2022-10-29T05:33:31.715Z,83.20
2022-10-29T05:36:35.334Z,83.10
2022-10-29T05:39:40.865Z,83.10
2022-10-29T05:42:47.302Z,83.20
2022-10-29T05:45:51.100Z,83.20
2022-10-29T05:48:54.730Z,83.30
2022-10-29T05:51:58.313Z,83.20
2022-10-29T05:55:03.858Z,83.30
2022-10-29T05:58:09.328Z,83.20
2022-10-29T06:01:13.320Z,83.30
2022-10-29T06:04:16.728Z,83.20
2022-10-29T06:07:20.378Z,83.40
2022-10-29T06:10:26.959Z,83.40
2022-10-29T06:13:30.668Z,83.30
2022-10-29T06:16:34.266Z,83.30
2022-10-29T06:19:37.889Z,83.50
2022-10-29T06:22:41.595Z,83.50
2022-10-29T06:25:47.183Z,83.50
2022-10-29T06:28:50.867Z,83.40
2022-10-29T06:31:54.550Z,83.50
2022-10-29T06:34:58.159Z,83.50
2022-10-29T06:38:05.075Z,83.70
2022-10-29T06:41:13.387Z,83.80
2022-10-29T06:44:17.042Z,84.40
2022-10-29T06:47:20.645Z,83.70
2022-10-29T06:50:24.541Z,83.70
2022-10-29T06:53:29.045Z,83.80
2022-10-29T06:56:34.961Z,83.80
2022-10-29T06:59:38.606Z,84.00
2022-10-29T07:02:42.223Z,84.00
2022-10-29T07:05:46.153Z,84.00
2022-10-29T07:08:49.529Z,84.10
2022-10-29T07:11:55.035Z,84.70
2022-10-29T07:14:58.660Z,83.90
2022-10-29T07:18:04.180Z,84.10
2022-10-29T07:21:09.115Z,84.20
2022-10-29T07:24:12.740Z,84.40
2022-10-29T07:27:18.327Z,84.50
2022-10-29T07:30:22.799Z,84.40
2022-10-29T07:33:26.629Z,84.50
2022-10-29T07:36:31.881Z,84.70
2022-10-29T07:39:35.486Z,84.90
2022-10-29T07:42:41.133Z,85.40
2022-10-29T07:45:49.201Z,84.90
2022-10-29T07:48:52.823Z,84.80
2022-10-29T07:51:56.488Z,84.90
2022-10-29T07:55:02.057Z,85.00
2022-10-29T07:58:09.556Z,85.10
2022-10-29T08:01:13.395Z,85.10
2022-10-29T08:04:17.039Z,85.20
2022-10-29T08:07:20.674Z,85.10
2022-10-29T08:10:24.721Z,85.00
2022-10-29T08:13:30.106Z,85.10
2022-10-29T08:16:33.721Z,85.10
2022-10-29T08:19:37.332Z,85.00
2022-10-29T08:22:41.285Z,85.20
2022-10-29T08:25:44.888Z,85.20
2022-10-29T08:28:50.481Z,85.20
2022-10-29T08:31:54.131Z,85.00
2022-10-29T08:34:57.768Z,85.20
2022-10-29T08:38:01.635Z,85.20
2022-10-29T08:41:36.054Z,85.40
2022-10-29T08:45:00.702Z,85.70
2022-10-29T08:48:26.996Z,85.60
2022-10-29T08:51:35.287Z,85.70
2022-10-29T08:54:43.327Z,85.50
2022-10-29T08:57:52.715Z,85.70
2022-10-29T09:01:00.170Z,85.80
2022-10-29T09:04:05.089Z,86.00
2022-10-29T09:07:33.744Z,86.10
2022-10-29T09:10:42.767Z,86.50
2022-10-29T09:13:56.940Z,86.30
2022-10-29T09:17:03.940Z,86.50
2022-10-29T09:20:24.581Z,86.30
2022-10-29T09:23:40.084Z,86.40
2022-10-29T09:26:53.836Z,87.10
2022-10-29T09:30:07.011Z,86.60
2022-10-29T09:33:16.654Z,86.70
2022-10-29T09:36:23.382Z,86.80
2022-10-29T09:39:34.390Z,86.90
2022-10-29T09:42:41.172Z,86.90
2022-10-29T09:45:50.507Z,86.90
2022-10-29T09:49:03.071Z,87.00
2022-10-29T09:52:11.639Z,87.10
2022-10-29T09:55:22.083Z,87.10
2022-10-29T09:58:28.139Z,87.10
2022-10-29T10:01:31.886Z,87.10
2022-10-29T10:04:45.736Z,87.00
2022-10-29T10:08:07.750Z,87.00
2022-10-29T10:11:21.067Z,86.80
2022-10-29T10:14:26.839Z,86.50
2022-10-29T10:17:33.418Z,86.30
2022-10-29T10:20:42.155Z,86.10
2022-10-29T10:23:47.683Z,86.10
2022-10-29T10:26:51.327Z,85.90
2022-10-29T10:30:15.346Z,85.70
2022-10-29T10:33:26.093Z,85.50
2022-10-29T10:36:31.909Z,85.50
2022-10-29T10:39:38.321Z,85.20
2022-10-29T10:42:46.895Z,85.10
2022-10-29T10:45:56.372Z,85.00
2022-10-29T10:49:02.138Z,84.90
2022-10-29T10:52:16.465Z,84.90
2022-10-29T10:55:25.723Z,84.70
2022-10-29T10:58:32.801Z,84.70
2022-10-29T11:01:39.942Z,84.50
2022-10-29T11:04:44.968Z,84.50
2022-10-29T11:07:58.987Z,84.30
2022-10-29T11:11:07.216Z,84.10
2022-10-29T11:14:16.878Z,84.00
2022-10-29T11:17:28.709Z,83.90
2022-10-29T11:20:35.983Z,83.80
2022-10-29T11:23:48.460Z,83.70
2022-10-29T11:26:57.226Z,83.60
2022-10-29T11:30:06.012Z,83.60
2022-10-29T11:33:18.656Z,83.40
2022-10-29T11:36:24.538Z,83.30
2022-10-29T11:39:34.592Z,83.20
2022-10-29T11:42:38.727Z,83.10
2022-10-29T11:45:52.956Z,83.10
2022-10-29T11:49:07.541Z,82.90
2022-10-29T11:52:14.776Z,82.80
2022-10-29T11:55:29.121Z,82.70
2022-10-29T11:58:40.733Z,82.50
2022-10-29T12:01:54.559Z,82.60
2022-10-29T12:05:03.162Z,82.40
2022-10-29T12:08:30.701Z,82.60
2022-10-29T12:11:43.545Z,82.20
2022-10-29T12:14:52.347Z,82.20
2022-10-29T12:18:06.314Z,82.20
2022-10-29T12:21:15.531Z,82.00
2022-10-29T12:24:33.281Z,81.90
2022-10-29T12:27:44.252Z,81.70
2022-10-29T12:30:58.885Z,81.70
2022-10-29T12:34:07.221Z,81.70
2022-10-29T12:37:17.032Z,81.50
2022-10-29T12:40:24.443Z,81.50
2022-10-29T12:43:32.762Z,81.40
2022-10-29T12:46:42.566Z,81.30
2022-10-29T12:49:55.410Z,81.20
2022-10-29T12:53:06.135Z,81.10
2022-10-29T12:56:16.200Z,81.00
2022-10-29T12:59:31.965Z,81.00
2022-10-29T13:02:47.829Z,80.70
2022-10-29T13:05:51.618Z,80.60
2022-10-29T13:08:57.798Z,80.70
2022-10-29T13:12:02.927Z,80.70
2022-10-29T13:15:14.772Z,80.70
2022-10-29T13:18:23.643Z,80.60
2022-10-29T13:21:58.405Z,80.60
2022-10-29T13:25:29.973Z,80.30
2022-10-29T13:28:50.009Z,80.30
2022-10-29T13:31:59.418Z,80.40
2022-10-29T13:35:27.671Z,80.40
2022-10-29T13:39:04.759Z,80.40
2022-10-29T13:42:13.837Z,80.20
2022-10-29T13:45:21.141Z,80.20
2022-10-29T13:48:29.869Z,80.20
2022-10-29T13:51:41.849Z,80.00
2022-10-29T13:54:52.209Z,80.60
2022-10-29T13:58:03.812Z,80.00
2022-10-29T14:01:13.200Z,80.10
2022-10-29T14:04:25.614Z,80.10
2022-10-29T14:07:35.328Z,79.90
2022-10-29T14:10:47.230Z,79.70
2022-10-29T14:13:52.732Z,79.60
2022-10-29T14:17:12.581Z,79.50
2022-10-29T14:20:27.399Z,79.30
2022-10-29T14:23:32.484Z,79.30
2022-10-29T14:26:40.817Z,79.30
2022-10-29T14:29:44.446Z,79.20
2022-10-29T14:32:48.126Z,79.30
2022-10-29T14:35:52.412Z,79.30
2022-10-29T14:38:59.347Z,79.20
2022-10-29T14:42:05.579Z,79.10
2022-10-29T14:45:19.499Z,79.10
2022-10-29T14:48:23.281Z,79.00
2022-10-29T14:51:28.378Z,79.20
2022-10-29T14:54:37.372Z,79.10
2022-10-29T14:57:46.885Z,79.00
2022-10-29T15:00:57.240Z,79.00
2022-10-29T15:04:01.774Z,79.00
2022-10-29T15:07:31.329Z,79.20
2022-10-29T15:10:46.341Z,78.90
2022-10-29T15:13:51.876Z,78.90
2022-10-29T15:16:55.541Z,79.00
2022-10-29T15:20:03.732Z,79.00
2022-10-29T15:23:17.029Z,78.90
2022-10-29T15:26:22.489Z,79.00
2022-10-29T15:29:34.660Z,79.60
2022-10-29T15:32:39.880Z,78.80
2022-10-29T15:35:51.150Z,78.80
2022-10-29T15:39:27.171Z,78.80
2022-10-29T15:42:33.317Z,78.60
2022-10-29T15:45:39.090Z,78.80
2022-10-29T15:48:42.676Z,78.80
2022-10-29T15:51:46.359Z,78.80
2022-10-29T15:54:50.115Z,78.80
2022-10-29T15:57:54.509Z,78.80
2022-10-29T16:01:00.403Z,78.90
2022-10-29T16:04:04.098Z,78.80
2022-10-29T16:07:10.489Z,78.80
2022-10-29T16:10:19.959Z,78.70
2022-10-29T16:13:24.728Z,78.80
2022-10-29T16:16:32.468Z,78.70
2022-10-29T16:19:36.090Z,78.80
2022-10-29T16:22:39.748Z,78.80
2022-10-29T16:25:43.353Z,78.80
2022-10-29T16:28:47.096Z,78.80
2022-10-29T16:31:52.684Z,78.80
2022-10-29T16:34:56.288Z,78.90
2022-10-29T16:38:00.136Z,78.80
2022-10-29T16:41:03.538Z,78.80
2022-10-29T16:44:07.245Z,78.90
2022-10-29T16:47:12.856Z,78.90
2022-10-29T16:50:18.860Z,78.90
2022-10-29T16:53:22.521Z,78.90
2022-10-29T16:56:26.280Z,79.00
2022-10-29T16:59:30.037Z,79.00
2022-10-29T17:02:35.717Z,79.00
2022-10-29T17:05:40.476Z,79.10
2022-10-29T17:08:44.095Z,79.10
2022-10-29T17:11:47.725Z,79.00
2022-10-29T17:14:51.370Z,79.10
2022-10-29T17:17:57.445Z,79.10
2022-10-29T17:21:02.529Z,79.10
2022-10-29T17:24:07.835Z,79.10
2022-10-29T17:27:11.947Z,79.20
2022-10-29T17:30:15.635Z,79.20
2022-10-29T17:33:21.399Z,79.10
2022-10-29T17:36:25.103Z,79.20
2022-10-29T17:39:28.822Z,79.20
2022-10-29T17:42:32.570Z,79.20
2022-10-29T17:45:36.441Z,79.20
2022-10-29T17:48:42.024Z,79.30
2022-10-29T17:51:45.627Z,79.30
2022-10-29T17:54:49.223Z,79.30
2022-10-29T17:57:52.816Z,79.30
2022-10-29T18:00:56.601Z,79.30
2022-10-29T18:04:04.156Z,79.30
2022-10-29T18:07:07.807Z,79.40
2022-10-29T18:10:11.721Z,79.40
2022-10-29T18:13:15.161Z,79.40
2022-10-29T18:16:21.025Z,79.50
2022-10-29T18:19:27.293Z,79.40
2022-10-29T18:22:30.981Z,79.50
2022-10-29T18:25:35.108Z,79.50
2022-10-29T18:28:38.745Z,79.60
2022-10-29T18:31:44.369Z,79.60
2022-10-29T18:34:49.991Z,79.70
2022-10-29T18:37:53.783Z,79.80
2022-10-29T18:40:58.767Z,79.80
2022-10-29T18:44:02.780Z,79.80
2022-10-29T18:47:06.693Z,79.80
2022-10-29T18:50:12.064Z,79.90
2022-10-29T18:53:15.675Z,80.00
2022-10-29T18:56:20.995Z,80.00
2022-10-29T18:59:24.602Z,80.00
2022-10-29T19:02:28.303Z,80.10
2022-10-29T19:05:36.502Z,80.00
2022-10-29T19:08:42.051Z,80.10
2022-10-29T19:11:46.011Z,80.20
2022-10-29T19:14:49.395Z,80.30
2022-10-29T19:17:52.996Z,80.20
2022-10-29T19:21:03.452Z,80.20
2022-10-29T19:24:08.729Z,80.20
2022-10-29T19:27:12.380Z,80.30
2022-10-29T19:30:16.091Z,80.40
2022-10-29T19:33:19.701Z,80.50
2022-10-29T19:36:27.291Z,80.40
2022-10-29T19:39:30.934Z,80.40
2022-10-29T19:42:34.594Z,80.50
2022-10-29T19:45:40.439Z,80.60
2022-10-29T19:48:44.065Z,80.60
2022-10-29T19:51:49.656Z,80.60
2022-10-29T19:54:53.284Z,80.60
2022-10-29T19:57:56.884Z,80.60
2022-10-29T20:01:05.885Z,80.60
2022-10-29T20:04:09.551Z,80.60
2022-10-29T20:07:15.134Z,80.60
2022-10-29T20:10:19.373Z,80.70
2022-10-29T20:13:22.972Z,80.70
2022-10-29T20:16:26.631Z,80.70
2022-10-29T20:19:30.365Z,80.70
2022-10-29T20:22:35.930Z,80.70
2022-10-29T20:25:39.660Z,80.70
2022-10-29T20:28:43.466Z,80.70
2022-10-29T20:31:47.221Z,80.80
2022-10-29T20:34:51.515Z,80.80
2022-10-29T20:37:57.489Z,80.90
2022-10-29T20:41:01.348Z,80.90
2022-10-29T20:44:05.082Z,80.90
2022-10-29T20:47:08.740Z,80.90
2022-10-29T20:50:12.432Z,81.00
2022-10-29T20:53:18.000Z,80.90
2022-10-29T20:56:22.589Z,81.10
2022-10-29T20:59:26.337Z,81.00
2022-10-29T21:02:30.040Z,81.00
2022-10-29T21:05:33.700Z,81.10
2022-10-29T21:08:40.131Z,81.10
2022-10-29T21:11:43.728Z,81.10
2022-10-29T21:14:47.378Z,81.10
2022-10-29T21:17:51.012Z,81.10
2022-10-29T21:20:54.672Z,81.20
2022-10-29T21:24:00.559Z,81.20
2022-10-29T21:27:04.242Z,81.20
2022-10-29T21:30:09.746Z,81.10
2022-10-29T21:33:13.367Z,81.10
2022-10-29T21:36:17.389Z,81.10
2022-10-29T21:39:22.923Z,81.10
2022-10-29T21:42:26.556Z,81.10
2022-10-29T21:45:30.169Z,81.10
2022-10-29T21:48:34.020Z,81.10
2022-10-29T21:51:37.626Z,81.00
2022-10-29T21:54:43.142Z,81.00
2022-10-29T21:57:46.825Z,80.90
2022-10-29T22:00:50.482Z,80.90
2022-10-29T22:03:54.095Z,80.90
2022-10-29T22:06:57.728Z,80.90
2022-10-29T22:10:03.704Z,80.80
2022-10-29T22:13:09.187Z,80.80
2022-10-29T22:16:15.585Z,80.80
2022-10-29T22:19:19.175Z,80.80
2022-10-29T22:22:22.820Z,80.80
2022-10-29T22:25:28.354Z,80.80
2022-10-29T22:28:32.021Z,80.70
2022-10-29T22:31:35.673Z,80.70
2022-10-29T22:34:39.246Z,80.60
2022-10-29T22:37:42.977Z,80.60
2022-10-29T22:40:48.552Z,80.60
2022-10-29T22:43:52.167Z,80.60
2022-10-29T22:46:55.764Z,80.50
2022-10-29T22:50:00.337Z,80.50
2022-10-29T22:53:03.953Z,80.50
2022-10-29T22:56:12.141Z,80.50
2022-10-29T22:59:15.745Z,80.60
2022-10-29T23:02:19.455Z,80.40
2022-10-29T23:05:23.223Z,80.50
2022-10-29T23:08:27.221Z,80.50
2022-10-29T23:11:34.397Z,80.50
2022-10-29T23:14:38.085Z,80.40
2022-10-29T23:17:41.660Z,80.40
2022-10-29T23:20:45.885Z,80.40
2022-10-29T23:23:50.794Z,80.40
2022-10-29T23:26:56.776Z,80.50
2022-10-29T23:30:00.440Z,80.40
2022-10-29T23:33:04.097Z,80.50
2022-10-29T23:36:10.274Z,80.50
2022-10-29T23:39:14.148Z,80.50
2022-10-29T23:42:19.682Z,80.50
2022-10-29T23:45:23.351Z,80.50
2022-10-29T23:48:27.274Z,80.50
2022-10-29T23:51:30.698Z,80.50
2022-10-29T23:54:34.442Z,80.50
2022-10-29T23:57:40.008Z,80.40
